sensor_id;sensor_type;location;lat;lon;timestamp;temperature;humidity
47757;SHT35;22147;52.388;13.390;2023-04-03T00:01:43;0.75;76.51
47757;SHT35;22147;52.388;13.390;2023-04-03T00:04:13;0.82;76.47
47757;SHT35;22147;52.388;13.390;2023-04-03T00:06:43;0.81;76.28
47757;SHT35;22147;52.388;13.390;2023-04-03T00:09:12;0.71;76.47
47757;SHT35;22147;52.388;13.390;2023-04-03T00:11:40;0.68;76.36
47757;SHT35;22147;52.388;13.390;2023-04-03T00:14:09;0.71;76.24
47757;SHT35;22147;52.388;13.390;2023-04-03T00:16:37;0.65;76.25
47757;SHT35;22147;52.388;13.390;2023-04-03T00:19:05;0.57;76.85
47757;SHT35;22147;52.388;13.390;2023-04-03T00:21:34;0.51;76.84
47757;SHT35;22147;52.388;13.390;2023-04-03T00:24:03;0.47;76.96
47757;SHT35;22147;52.388;13.390;2023-04-03T00:26:31;0.44;77.06
47757;SHT35;22147;52.388;13.390;2023-04-03T00:28:59;0.40;77.28
47757;SHT35;22147;52.388;13.390;2023-04-03T00:31:28;0.31;77.52
47757;SHT35;22147;52.388;13.390;2023-04-03T00:33:56;0.41;77.44
47757;SHT35;22147;52.388;13.390;2023-04-03T00:36:24;0.40;77.35
47757;SHT35;22147;52.388;13.390;2023-04-03T00:38:53;0.36;77.49
47757;SHT35;22147;52.388;13.390;2023-04-03T00:41:21;0.34;77.52
47757;SHT35;22147;52.388;13.390;2023-04-03T00:43:50;0.34;77.42
47757;SHT35;22147;52.388;13.390;2023-04-03T00:46:18;0.34;77.46
47757;SHT35;22147;52.388;13.390;2023-04-03T00:48:49;0.31;77.37
47757;SHT35;22147;52.388;13.390;2023-04-03T00:51:24;0.28;77.43
47757;SHT35;22147;52.388;13.390;2023-04-03T00:54:05;0.28;77.30
47757;SHT35;22147;52.388;13.390;2023-04-03T00:56:38;0.28;77.47
47757;SHT35;22147;52.388;13.390;2023-04-03T00:59:22;0.33;77.22
47757;SHT35;22147;52.388;13.390;2023-04-03T01:01:57;0.26;76.92
47757;SHT35;22147;52.388;13.390;2023-04-03T01:04:37;0.21;77.14
47757;SHT35;22147;52.388;13.390;2023-04-03T01:09:51;0.24;76.54
47757;SHT35;22147;52.388;13.390;2023-04-03T01:12:30;0.14;77.17
47757;SHT35;22147;52.388;13.390;2023-04-03T01:15:13;0.10;77.39
47757;SHT35;22147;52.388;13.390;2023-04-03T01:17:49;0.06;77.15
47757;SHT35;22147;52.388;13.390;2023-04-03T01:25:49;0.03;77.25
47757;SHT35;22147;52.388;13.390;2023-04-03T01:28:34;0.02;77.43
47757;SHT35;22147;52.388;13.390;2023-04-03T01:31:20;-0.07;77.69
47757;SHT35;22147;52.388;13.390;2023-04-03T01:33:53;-0.08;77.60
47757;SHT35;22147;52.388;13.390;2023-04-03T01:36:30;-0.01;77.65
47757;SHT35;22147;52.388;13.390;2023-04-03T01:39:01;-0.04;77.62
47757;SHT35;22147;52.388;13.390;2023-04-03T01:41:31;-0.03;77.75
47757;SHT35;22147;52.388;13.390;2023-04-03T01:44:01;-0.10;77.89
47757;SHT35;22147;52.388;13.390;2023-04-03T01:46:31;-0.12;77.98
47757;SHT35;22147;52.388;13.390;2023-04-03T01:49:02;-0.12;78.11
47757;SHT35;22147;52.388;13.390;2023-04-03T01:51:32;-0.01;77.85
47757;SHT35;22147;52.388;13.390;2023-04-03T01:54:03;-0.08;77.79
47757;SHT35;22147;52.388;13.390;2023-04-03T01:56:32;-0.11;77.90
47757;SHT35;22147;52.388;13.390;2023-04-03T01:59:02;-0.11;77.91
47757;SHT35;22147;52.388;13.390;2023-04-03T02:01:32;-0.19;77.98
47757;SHT35;22147;52.388;13.390;2023-04-03T02:04:02;-0.21;78.19
47757;SHT35;22147;52.388;13.390;2023-04-03T02:06:32;-0.21;78.24
47757;SHT35;22147;52.388;13.390;2023-04-03T02:09:03;-0.28;78.31
47757;SHT35;22147;52.388;13.390;2023-04-03T02:11:33;-0.33;78.52
47757;SHT35;22147;52.388;13.390;2023-04-03T02:14:02;-0.38;78.59
47757;SHT35;22147;52.388;13.390;2023-04-03T02:16:33;-0.38;78.61
47757;SHT35;22147;52.388;13.390;2023-04-03T02:19:03;-0.33;78.21
47757;SHT35;22147;52.388;13.390;2023-04-03T02:21:32;-0.24;78.17
47757;SHT35;22147;52.388;13.390;2023-04-03T02:24:02;-0.22;78.15
47757;SHT35;22147;52.388;13.390;2023-04-03T02:26:32;-0.22;78.15
47757;SHT35;22147;52.388;13.390;2023-04-03T02:29:02;-0.24;78.05
47757;SHT35;22147;52.388;13.390;2023-04-03T02:31:32;-0.28;78.45
47757;SHT35;22147;52.388;13.390;2023-04-03T02:34:02;-0.31;78.46
47757;SHT35;22147;52.388;13.390;2023-04-03T02:36:32;-0.36;78.85
47757;SHT35;22147;52.388;13.390;2023-04-03T02:39:03;-0.36;79.04
47757;SHT35;22147;52.388;13.390;2023-04-03T02:41:33;-0.28;79.28
47757;SHT35;22147;52.388;13.390;2023-04-03T02:44:11;-0.24;78.73
47757;SHT35;22147;52.388;13.390;2023-04-03T02:46:39;-0.32;78.77
47757;SHT35;22147;52.388;13.390;2023-04-03T02:49:07;-0.36;79.06
47757;SHT35;22147;52.388;13.390;2023-04-03T02:51:36;-0.41;79.21
47757;SHT35;22147;52.388;13.390;2023-04-03T02:54:04;-0.45;79.41
47757;SHT35;22147;52.388;13.390;2023-04-03T02:56:33;-0.41;79.64
47757;SHT35;22147;52.388;13.390;2023-04-03T02:59:01;-0.45;79.66
47757;SHT35;22147;52.388;13.390;2023-04-03T03:01:30;-0.42;79.89
47757;SHT35;22147;52.388;13.390;2023-04-03T03:04:01;-0.35;79.68
47757;SHT35;22147;52.388;13.390;2023-04-03T03:06:29;-0.35;79.57
47757;SHT35;22147;52.388;13.390;2023-04-03T03:08:58;-0.35;79.60
47757;SHT35;22147;52.388;13.390;2023-04-03T03:11:26;-0.36;79.76
47757;SHT35;22147;52.388;13.390;2023-04-03T03:13:56;-0.33;79.66
47757;SHT35;22147;52.388;13.390;2023-04-03T03:16:24;-0.31;79.65
47757;SHT35;22147;52.388;13.390;2023-04-03T03:18:52;-0.28;79.59
47757;SHT35;22147;52.388;13.390;2023-04-03T03:21:21;-0.29;79.68
47757;SHT35;22147;52.388;13.390;2023-04-03T03:23:49;-0.24;79.51
47757;SHT35;22147;52.388;13.390;2023-04-03T03:26:17;-0.25;79.66
47757;SHT35;22147;52.388;13.390;2023-04-03T03:28:46;-0.31;79.83
47757;SHT35;22147;52.388;13.390;2023-04-03T03:31:14;-0.32;80.03
47757;SHT35;22147;52.388;13.390;2023-04-03T03:33:43;-0.42;80.16
47757;SHT35;22147;52.388;13.390;2023-04-03T03:36:12;-0.49;80.47
47757;SHT35;22147;52.388;13.390;2023-04-03T03:38:40;-0.53;80.71
47757;SHT35;22147;52.388;13.390;2023-04-03T03:41:08;-0.55;80.83
47757;SHT35;22147;52.388;13.390;2023-04-03T03:43:38;-0.56;81.09
47757;SHT35;22147;52.388;13.390;2023-04-03T03:46:06;-0.62;81.04
47757;SHT35;22147;52.388;13.390;2023-04-03T03:48:34;-0.63;81.36
47757;SHT35;22147;52.388;13.390;2023-04-03T03:51:03;-0.62;81.40
47757;SHT35;22147;52.388;13.390;2023-04-03T03:53:31;-0.63;81.36
47757;SHT35;22147;52.388;13.390;2023-04-03T03:55:59;-0.59;81.37
47757;SHT35;22147;52.388;13.390;2023-04-03T03:58:28;-0.56;81.27
47757;SHT35;22147;52.388;13.390;2023-04-03T04:00:56;-0.59;81.14
47757;SHT35;22147;52.388;13.390;2023-04-03T04:03:25;-0.63;81.47
47757;SHT35;22147;52.388;13.390;2023-04-03T04:05:53;-0.63;81.54
47757;SHT35;22147;52.388;13.390;2023-04-03T04:08:22;-0.63;81.50
47757;SHT35;22147;52.388;13.390;2023-04-03T04:10:50;-0.63;81.68
47757;SHT35;22147;52.388;13.390;2023-04-03T04:13:18;-0.66;81.80
47757;SHT35;22147;52.388;13.390;2023-04-03T04:15:47;-0.69;81.91
47757;SHT35;22147;52.388;13.390;2023-04-03T04:18:15;-0.69;81.94
47757;SHT35;22147;52.388;13.390;2023-04-03T04:20:46;-0.59;81.83
47757;SHT35;22147;52.388;13.390;2023-04-03T04:23:18;-0.63;81.59
47757;SHT35;22147;52.388;13.390;2023-04-03T04:25:49;-0.53;81.31
47757;SHT35;22147;52.388;13.390;2023-04-03T04:28:19;-0.46;81.15
47757;SHT35;22147;52.388;13.390;2023-04-03T04:30:50;-0.48;80.97
47757;SHT35;22147;52.388;13.390;2023-04-03T04:33:20;-0.55;81.10
47757;SHT35;22147;52.388;13.390;2023-04-03T04:35:50;-0.49;81.12
47757;SHT35;22147;52.388;13.390;2023-04-03T04:38:21;-0.52;81.14
47757;SHT35;22147;52.388;13.390;2023-04-03T04:40:51;-0.49;80.87
47757;SHT35;22147;52.388;13.390;2023-04-03T04:43:22;-0.53;81.08
47757;SHT35;22147;52.388;13.390;2023-04-03T04:46:09;-0.49;80.96
47757;SHT35;22147;52.388;13.390;2023-04-03T04:48:41;-0.53;80.98
47757;SHT35;22147;52.388;13.390;2023-04-03T04:51:12;-0.53;81.11
47757;SHT35;22147;52.388;13.390;2023-04-03T04:53:42;-0.55;81.10
47757;SHT35;22147;52.388;13.390;2023-04-03T04:56:12;-0.55;81.19
47757;SHT35;22147;52.388;13.390;2023-04-03T04:58:42;-0.58;81.52
47757;SHT35;22147;52.388;13.390;2023-04-03T05:01:12;-0.48;81.61
47757;SHT35;22147;52.388;13.390;2023-04-03T05:03:42;-0.48;81.10
47757;SHT35;22147;52.388;13.390;2023-04-03T05:06:12;-0.43;81.13
47757;SHT35;22147;52.388;13.390;2023-04-03T05:08:42;-0.36;81.19
47757;SHT35;22147;52.388;13.390;2023-04-03T05:11:12;-0.38;81.00
47757;SHT35;22147;52.388;13.390;2023-04-03T05:13:42;-0.41;81.19
47757;SHT35;22147;52.388;13.390;2023-04-03T05:16:12;-0.38;81.44
47757;SHT35;22147;52.388;13.390;2023-04-03T05:18:42;-0.28;81.21
47757;SHT35;22147;52.388;13.390;2023-04-03T05:21:12;-0.28;81.04
47757;SHT35;22147;52.388;13.390;2023-04-03T05:23:42;-0.24;81.04
47757;SHT35;22147;52.388;13.390;2023-04-03T05:26:12;-0.22;81.14
47757;SHT35;22147;52.388;13.390;2023-04-03T05:28:42;-0.15;81.08
47757;SHT35;22147;52.388;13.390;2023-04-03T05:31:13;-0.14;80.95
47757;SHT35;22147;52.388;13.390;2023-04-03T05:33:43;0.02;80.70
47757;SHT35;22147;52.388;13.390;2023-04-03T05:36:13;0.07;80.58
47757;SHT35;22147;52.388;13.390;2023-04-03T05:38:43;0.17;79.98
47757;SHT35;22147;52.388;13.390;2023-04-03T05:41:14;0.24;79.82
47757;SHT35;22147;52.388;13.390;2023-04-03T05:43:45;0.30;79.60
47757;SHT35;22147;52.388;13.390;2023-04-03T05:46:19;0.33;79.48
47757;SHT35;22147;52.388;13.390;2023-04-03T05:48:48;0.45;79.17
47757;SHT35;22147;52.388;13.390;2023-04-03T05:51:28;0.53;78.64
47757;SHT35;22147;52.388;13.390;2023-04-03T05:54:18;0.69;78.40
47757;SHT35;22147;52.388;13.390;2023-04-03T05:56:50;0.89;77.80
47757;SHT35;22147;52.388;13.390;2023-04-03T05:59:21;1.15;77.14
47757;SHT35;22147;52.388;13.390;2023-04-03T06:01:51;1.33;75.87
47757;SHT35;22147;52.388;13.390;2023-04-03T06:04:21;1.39;75.24
47757;SHT35;22147;52.388;13.390;2023-04-03T06:06:56;1.46;74.85
47757;SHT35;22147;52.388;13.390;2023-04-03T06:09:28;1.47;75.23
47757;SHT35;22147;52.388;13.390;2023-04-03T06:11:58;1.68;74.23
47757;SHT35;22147;52.388;13.390;2023-04-03T06:14:27;1.77;73.48
47757;SHT35;22147;52.388;13.390;2023-04-03T06:16:57;1.70;73.65
47757;SHT35;22147;52.388;13.390;2023-04-03T06:19:30;1.81;73.22
47757;SHT35;22147;52.388;13.390;2023-04-03T06:22:01;1.86;73.18
47757;SHT35;22147;52.388;13.390;2023-04-03T06:24:32;2.05;72.79
47757;SHT35;22147;52.388;13.390;2023-04-03T06:27:03;2.23;72.55
47757;SHT35;22147;52.388;13.390;2023-04-03T06:29:33;2.40;70.63
47757;SHT35;22147;52.388;13.390;2023-04-03T06:32:04;2.47;70.70
47757;SHT35;22147;52.388;13.390;2023-04-03T06:34:34;2.62;70.13
47757;SHT35;22147;52.388;13.390;2023-04-03T06:37:05;2.65;69.34
47757;SHT35;22147;52.388;13.390;2023-04-03T06:39:36;2.87;68.62
47757;SHT35;22147;52.388;13.390;2023-04-03T06:42:09;3.09;68.26
47757;SHT35;22147;52.388;13.390;2023-04-03T06:44:45;3.35;66.67
47757;SHT35;22147;52.388;13.390;2023-04-03T06:47:16;3.29;66.60
47757;SHT35;22147;52.388;13.390;2023-04-03T06:49:45;3.60;66.84
47757;SHT35;22147;52.388;13.390;2023-04-03T06:52:14;3.59;65.18
47757;SHT35;22147;52.388;13.390;2023-04-03T06:54:42;3.77;63.69
47757;SHT35;22147;52.388;13.390;2023-04-03T06:57:11;3.83;65.26
47757;SHT35;22147;52.388;13.390;2023-04-03T06:59:39;4.02;61.17
47757;SHT35;22147;52.388;13.390;2023-04-03T07:02:11;4.44;59.68
47757;SHT35;22147;52.388;13.390;2023-04-03T07:04:42;4.59;60.31
47757;SHT35;22147;52.388;13.390;2023-04-03T07:07:12;4.35;59.32
47757;SHT35;22147;52.388;13.390;2023-04-03T07:09:43;4.36;58.62
47757;SHT35;22147;52.388;13.390;2023-04-03T07:12:17;4.80;58.60
47757;SHT35;22147;52.388;13.390;2023-04-03T07:14:47;4.22;58.66
47757;SHT35;22147;52.388;13.390;2023-04-03T07:17:17;4.45;58.48
47757;SHT35;22147;52.388;13.390;2023-04-03T07:19:47;4.08;59.88
47757;SHT35;22147;52.388;13.390;2023-04-03T07:22:18;4.39;59.76
47757;SHT35;22147;52.388;13.390;2023-04-03T07:24:48;4.55;57.20
47757;SHT35;22147;52.388;13.390;2023-04-03T07:27:18;4.01;57.14
47757;SHT35;22147;52.388;13.390;2023-04-03T07:29:49;3.90;58.21
47757;SHT35;22147;52.388;13.390;2023-04-03T07:32:19;4.34;56.60
47757;SHT35;22147;52.388;13.390;2023-04-03T07:34:50;4.50;55.24
47757;SHT35;22147;52.388;13.390;2023-04-03T07:37:20;4.05;56.67
47757;SHT35;22147;52.388;13.390;2023-04-03T07:39:50;3.98;57.04
47757;SHT35;22147;52.388;13.390;2023-04-03T07:42:20;4.60;57.34
47757;SHT35;22147;52.388;13.390;2023-04-03T07:44:51;4.57;55.58
47757;SHT35;22147;52.388;13.390;2023-04-03T07:47:21;4.86;55.45
47757;SHT35;22147;52.388;13.390;2023-04-03T07:49:52;5.52;53.63
47757;SHT35;22147;52.388;13.390;2023-04-03T07:52:22;5.21;53.83
47757;SHT35;22147;52.388;13.390;2023-04-03T07:54:52;4.86;55.16
47757;SHT35;22147;52.388;13.390;2023-04-03T07:57:22;4.94;53.53
47757;SHT35;22147;52.388;13.390;2023-04-03T07:59:53;5.00;50.70
47757;SHT35;22147;52.388;13.390;2023-04-03T08:02:23;5.14;51.71
47757;SHT35;22147;52.388;13.390;2023-04-03T08:04:54;4.52;52.44
47757;SHT35;22147;52.388;13.390;2023-04-03T08:07:25;5.28;52.85
47757;SHT35;22147;52.388;13.390;2023-04-03T08:09:55;5.34;52.69
47757;SHT35;22147;52.388;13.390;2023-04-03T08:12:26;5.60;51.17
47757;SHT35;22147;52.388;13.390;2023-04-03T08:15:00;5.86;51.89
47757;SHT35;22147;52.388;13.390;2023-04-03T08:17:31;6.62;50.40
47757;SHT35;22147;52.388;13.390;2023-04-03T08:20:05;6.76;48.31
47757;SHT35;22147;52.388;13.390;2023-04-03T08:22:36;6.13;50.50
47757;SHT35;22147;52.388;13.390;2023-04-03T08:25:08;5.62;52.67
47757;SHT35;22147;52.388;13.390;2023-04-03T08:27:37;5.13;53.72
47757;SHT35;22147;52.388;13.390;2023-04-03T08:30:08;5.04;54.22
47757;SHT35;22147;52.388;13.390;2023-04-03T08:32:38;5.07;54.81
47757;SHT35;22147;52.388;13.390;2023-04-03T08:35:11;5.25;53.66
47757;SHT35;22147;52.388;13.390;2023-04-03T08:37:41;4.59;55.55
47757;SHT35;22147;52.388;13.390;2023-04-03T08:40:16;4.79;53.66
47757;SHT35;22147;52.388;13.390;2023-04-03T08:46:01;4.25;54.60
47757;SHT35;22147;52.388;13.390;2023-04-03T08:48:42;4.44;54.81
47757;SHT35;22147;52.388;13.390;2023-04-03T08:51:20;4.50;54.52
47757;SHT35;22147;52.388;13.390;2023-04-03T08:54:06;4.32;55.48
47757;SHT35;22147;52.388;13.390;2023-04-03T08:56:45;5.07;52.61
47757;SHT35;22147;52.388;13.390;2023-04-03T08:59:28;5.83;53.02
47757;SHT35;22147;52.388;13.390;2023-04-03T09:02:18;7.28;50.63
47757;SHT35;22147;52.388;13.390;2023-04-03T09:04:51;7.79;47.22
47757;SHT35;22147;52.388;13.390;2023-04-03T09:07:43;7.96;44.20
47757;SHT35;22147;52.388;13.390;2023-04-03T09:10:30;7.24;47.67
47757;SHT35;22147;52.388;13.390;2023-04-03T09:13:38;7.89;47.68
47757;SHT35;22147;52.388;13.390;2023-04-03T09:22:44;8.99;44.47
47757;SHT35;22147;52.388;13.390;2023-04-03T09:25:31;8.50;43.72
47757;SHT35;22147;52.388;13.390;2023-04-03T09:28:04;8.85;42.61
47757;SHT35;22147;52.388;13.390;2023-04-03T09:30:40;7.51;43.13
47757;SHT35;22147;52.388;13.390;2023-04-03T09:33:13;7.13;45.60
47757;SHT35;22147;52.388;13.390;2023-04-03T09:35:45;7.69;44.04
47757;SHT35;22147;52.388;13.390;2023-04-03T09:38:22;6.18;48.44
47757;SHT35;22147;52.388;13.390;2023-04-03T09:41:15;6.14;47.23
47757;SHT35;22147;52.388;13.390;2023-04-03T09:43:54;6.32;49.11
47757;SHT35;22147;52.388;13.390;2023-04-03T09:46:33;7.69;42.87
47757;SHT35;22147;52.388;13.390;2023-04-03T09:49:05;7.89;44.91
47757;SHT35;22147;52.388;13.390;2023-04-03T09:51:40;8.07;44.92
47757;SHT35;22147;52.388;13.390;2023-04-03T09:54:39;7.50;44.21
47757;SHT35;22147;52.388;13.390;2023-04-03T09:57:13;7.76;43.01
47757;SHT35;22147;52.388;13.390;2023-04-03T09:59:58;7.78;43.75
47757;SHT35;22147;52.388;13.390;2023-04-03T10:02:37;7.64;42.90
47757;SHT35;22147;52.388;13.390;2023-04-03T10:05:41;7.51;43.59
47757;SHT35;22147;52.388;13.390;2023-04-03T10:11:23;7.89;43.48
47757;SHT35;22147;52.388;13.390;2023-04-03T10:14:00;7.03;43.98
47757;SHT35;22147;52.388;13.390;2023-04-03T10:16:58;6.88;43.76
47757;SHT35;22147;52.388;13.390;2023-04-03T10:23:45;6.71;45.69
47757;SHT35;22147;52.388;13.390;2023-04-03T10:27:08;6.48;46.79
47757;SHT35;22147;52.388;13.390;2023-04-03T10:29:59;6.55;45.86
47757;SHT35;22147;52.388;13.390;2023-04-03T10:32:57;6.79;45.65
47757;SHT35;22147;52.388;13.390;2023-04-03T10:52:06;7.61;44.04
47757;SHT35;22147;52.388;13.390;2023-04-03T10:57:49;7.35;43.71
47757;SHT35;22147;52.388;13.390;2023-04-03T11:00:41;7.20;47.82
47757;SHT35;22147;52.388;13.390;2023-04-03T11:03:36;6.86;45.35
47757;SHT35;22147;52.388;13.390;2023-04-03T11:06:17;6.41;47.78
47757;SHT35;22147;52.388;13.390;2023-04-03T11:09:04;6.78;47.21
47757;SHT35;22147;52.388;13.390;2023-04-03T11:11:41;6.67;47.71
47757;SHT35;22147;52.388;13.390;2023-04-03T11:14:33;6.85;47.37
47757;SHT35;22147;52.388;13.390;2023-04-03T11:20:30;7.31;46.14
47757;SHT35;22147;52.388;13.390;2023-04-03T11:23:26;6.85;45.89
47757;SHT35;22147;52.388;13.390;2023-04-03T11:26:24;6.49;46.31
47757;SHT35;22147;52.388;13.390;2023-04-03T11:29:10;6.55;47.70
47757;SHT35;22147;52.388;13.390;2023-04-03T11:32:56;6.93;46.68
47757;SHT35;22147;52.388;13.390;2023-04-03T11:35:30;6.89;47.54
47757;SHT35;22147;52.388;13.390;2023-04-03T11:38:06;6.79;49.78
47757;SHT35;22147;52.388;13.390;2023-04-03T11:40:38;6.46;48.97
47757;SHT35;22147;52.388;13.390;2023-04-03T11:46:02;7.04;47.25
47757;SHT35;22147;52.388;13.390;2023-04-03T11:48:48;6.80;48.64
47757;SHT35;22147;52.388;13.390;2023-04-03T12:13:43;7.23;49.48
47757;SHT35;22147;52.388;13.390;2023-04-03T12:19:39;7.14;48.39
47757;SHT35;22147;52.388;13.390;2023-04-03T12:22:20;6.92;48.59
47757;SHT35;22147;52.388;13.390;2023-04-03T12:24:54;6.95;48.96
47757;SHT35;22147;52.388;13.390;2023-04-03T12:27:54;6.82;47.38
47757;SHT35;22147;52.388;13.390;2023-04-03T12:30:30;6.53;50.05
47757;SHT35;22147;52.388;13.390;2023-04-03T12:33:29;6.62;48.42
47757;SHT35;22147;52.388;13.390;2023-04-03T12:46:48;6.83;46.84
47757;SHT35;22147;52.388;13.390;2023-04-03T12:49:37;6.31;49.19
47757;SHT35;22147;52.388;13.390;2023-04-03T12:52:38;6.61;47.13
47757;SHT35;22147;52.388;13.390;2023-04-03T12:55:20;6.40;47.02
47757;SHT35;22147;52.388;13.390;2023-04-03T12:57:51;6.56;47.97
47757;SHT35;22147;52.388;13.390;2023-04-03T13:00:36;6.64;45.71
47757;SHT35;22147;52.388;13.390;2023-04-03T13:03:25;6.34;45.95
47757;SHT35;22147;52.388;13.390;2023-04-03T13:06:02;6.56;47.14
47757;SHT35;22147;52.388;13.390;2023-04-03T13:08:33;6.61;46.59
47757;SHT35;22147;52.388;13.390;2023-04-03T13:11:11;6.75;46.89
47757;SHT35;22147;52.388;13.390;2023-04-03T13:13:59;6.71;47.30
47757;SHT35;22147;52.388;13.390;2023-04-03T13:16:29;6.35;48.62
47757;SHT35;22147;52.388;13.390;2023-04-03T13:19:00;6.38;48.64
47757;SHT35;22147;52.388;13.390;2023-04-03T13:21:35;6.45;48.05
47757;SHT35;22147;52.388;13.390;2023-04-03T13:24:05;6.59;48.56
47757;SHT35;22147;52.388;13.390;2023-04-03T13:26:44;6.56;47.37
47757;SHT35;22147;52.388;13.390;2023-04-03T13:29:37;6.76;47.14
47757;SHT35;22147;52.388;13.390;2023-04-03T13:32:22;6.86;46.41
47757;SHT35;22147;52.388;13.390;2023-04-03T13:34:53;6.90;48.18
47757;SHT35;22147;52.388;13.390;2023-04-03T13:37:33;6.83;48.18
47757;SHT35;22147;52.388;13.390;2023-04-03T13:42:41;6.62;47.59
47757;SHT35;22147;52.388;13.390;2023-04-03T13:45:29;6.67;48.85
47757;SHT35;22147;52.388;13.390;2023-04-03T13:48:19;6.72;49.02
47757;SHT35;22147;52.388;13.390;2023-04-03T13:51:02;6.68;47.05
47757;SHT35;22147;52.388;13.390;2023-04-03T13:53:48;6.72;47.24
47757;SHT35;22147;52.388;13.390;2023-04-03T13:56:36;6.69;48.30
47757;SHT35;22147;52.388;13.390;2023-04-03T14:01:55;6.11;51.46
47757;SHT35;22147;52.388;13.390;2023-04-03T14:04:55;6.04;52.07
47757;SHT35;22147;52.388;13.390;2023-04-03T14:07:30;6.06;50.60
47757;SHT35;22147;52.388;13.390;2023-04-03T14:10:01;5.83;51.97
47757;SHT35;22147;52.388;13.390;2023-04-03T14:12:38;5.76;52.15
47757;SHT35;22147;52.388;13.390;2023-04-03T14:15:28;5.59;53.41
47757;SHT35;22147;52.388;13.390;2023-04-03T14:17:58;5.76;52.03
47757;SHT35;22147;52.388;13.390;2023-04-03T14:20:31;5.94;51.82
47757;SHT35;22147;52.388;13.390;2023-04-03T14:23:01;6.09;51.42
47757;SHT35;22147;52.388;13.390;2023-04-03T14:25:30;6.32;50.84
47757;SHT35;22147;52.388;13.390;2023-04-03T14:28:06;6.24;50.95
47757;SHT35;22147;52.388;13.390;2023-04-03T14:30:42;6.44;49.98
47757;SHT35;22147;52.388;13.390;2023-04-03T14:33:21;6.35;51.32
47757;SHT35;22147;52.388;13.390;2023-04-03T14:35:51;6.48;50.62
47757;SHT35;22147;52.388;13.390;2023-04-03T14:38:30;6.76;50.43
47757;SHT35;22147;52.388;13.390;2023-04-03T14:41:01;6.73;49.06
47757;SHT35;22147;52.388;13.390;2023-04-03T14:43:46;6.73;48.81
47757;SHT35;22147;52.388;13.390;2023-04-03T14:46:33;6.62;48.61
47757;SHT35;22147;52.388;13.390;2023-04-03T14:49:28;6.52;50.06
47757;SHT35;22147;52.388;13.390;2023-04-03T14:51:58;6.34;50.59
47757;SHT35;22147;52.388;13.390;2023-04-03T14:54:28;6.52;51.00
47757;SHT35;22147;52.388;13.390;2023-04-03T14:57:01;6.46;49.38
47757;SHT35;22147;52.388;13.390;2023-04-03T14:59:31;6.38;49.94
47757;SHT35;22147;52.388;13.390;2023-04-03T15:02:01;7.14;49.79
47757;SHT35;22147;52.388;13.390;2023-04-03T15:04:32;7.82;45.76
47757;SHT35;22147;52.388;13.390;2023-04-03T15:07:02;7.52;47.29
47757;SHT35;22147;52.388;13.390;2023-04-03T15:09:35;7.07;47.75
47757;SHT35;22147;52.388;13.390;2023-04-03T15:12:10;6.56;49.50
47757;SHT35;22147;52.388;13.390;2023-04-03T15:14:43;6.31;50.73
47757;SHT35;22147;52.388;13.390;2023-04-03T15:17:23;5.97;52.45
47757;SHT35;22147;52.388;13.390;2023-04-03T15:19:53;6.06;51.99
47757;SHT35;22147;52.388;13.390;2023-04-03T15:22:24;5.96;53.55
47757;SHT35;22147;52.388;13.390;2023-04-03T15:24:54;5.85;55.44
47757;SHT35;22147;52.388;13.390;2023-04-03T15:27:24;5.83;54.94
47757;SHT35;22147;52.388;13.390;2023-04-03T15:29:55;5.83;54.47
47757;SHT35;22147;52.388;13.390;2023-04-03T15:32:25;5.73;53.86
47757;SHT35;22147;52.388;13.390;2023-04-03T15:34:55;5.63;54.46
47757;SHT35;22147;52.388;13.390;2023-04-03T15:37:26;5.56;54.91
47757;SHT35;22147;52.388;13.390;2023-04-03T15:39:56;5.38;56.08
47757;SHT35;22147;52.388;13.390;2023-04-03T15:42:26;5.31;56.49
47757;SHT35;22147;52.388;13.390;2023-04-03T15:44:56;5.15;57.20
47757;SHT35;22147;52.388;13.390;2023-04-03T15:47:27;5.04;57.46
47757;SHT35;22147;52.388;13.390;2023-04-03T15:49:59;5.04;57.30
47757;SHT35;22147;52.388;13.390;2023-04-03T15:52:29;5.03;57.18
47757;SHT35;22147;52.388;13.390;2023-04-03T15:55:00;4.81;58.33
47757;SHT35;22147;52.388;13.390;2023-04-03T15:57:30;4.70;58.61
47757;SHT35;22147;52.388;13.390;2023-04-03T16:00:23;4.97;57.77
47757;SHT35;22147;52.388;13.390;2023-04-03T16:03:20;4.70;58.51
47757;SHT35;22147;52.388;13.390;2023-04-03T16:05:52;4.69;59.45
47757;SHT35;22147;52.388;13.390;2023-04-03T16:08:20;4.74;58.56
47757;SHT35;22147;52.388;13.390;2023-04-03T16:10:49;4.79;58.85
47757;SHT35;22147;52.388;13.390;2023-04-03T16:13:17;4.77;58.90
47757;SHT35;22147;52.388;13.390;2023-04-03T16:15:45;4.81;59.18
47757;SHT35;22147;52.388;13.390;2023-04-03T16:18:14;4.83;59.31
47757;SHT35;22147;52.388;13.390;2023-04-03T16:20:42;4.86;59.94
47757;SHT35;22147;52.388;13.390;2023-04-03T16:23:11;4.77;58.97
47757;SHT35;22147;52.388;13.390;2023-04-03T16:25:39;4.70;58.91
47757;SHT35;22147;52.388;13.390;2023-04-03T16:28:07;4.49;58.86
47757;SHT35;22147;52.388;13.390;2023-04-03T16:30:36;4.49;58.83
47757;SHT35;22147;52.388;13.390;2023-04-03T16:33:04;4.52;58.46
47757;SHT35;22147;52.388;13.390;2023-04-03T16:35:32;4.52;58.96
47757;SHT35;22147;52.388;13.390;2023-04-03T16:38:01;4.65;59.16
47757;SHT35;22147;52.388;13.390;2023-04-03T16:40:29;4.72;58.47
47757;SHT35;22147;52.388;13.390;2023-04-03T16:42:58;4.90;58.63
47757;SHT35;22147;52.388;13.390;2023-04-03T16:45:27;4.87;58.88
47757;SHT35;22147;52.388;13.390;2023-04-03T16:47:55;4.91;59.17
47757;SHT35;22147;52.388;13.390;2023-04-03T16:50:23;4.81;57.63
47757;SHT35;22147;52.388;13.390;2023-04-03T16:52:52;4.86;57.25
47757;SHT35;22147;52.388;13.390;2023-04-03T16:55:20;4.76;57.39
47757;SHT35;22147;52.388;13.390;2023-04-03T16:57:48;4.66;57.49
47757;SHT35;22147;52.388;13.390;2023-04-03T17:00:17;4.69;57.17
47757;SHT35;22147;52.388;13.390;2023-04-03T17:02:45;4.76;56.52
47757;SHT35;22147;52.388;13.390;2023-04-03T17:05:14;4.90;56.83
47757;SHT35;22147;52.388;13.390;2023-04-03T17:07:42;4.72;57.65
47757;SHT35;22147;52.388;13.390;2023-04-03T17:10:12;4.49;58.55
47757;SHT35;22147;52.388;13.390;2023-04-03T17:12:42;4.53;58.58
47757;SHT35;22147;52.388;13.390;2023-04-03T17:15:11;4.50;59.22
47757;SHT35;22147;52.388;13.390;2023-04-03T17:17:39;4.50;60.00
47757;SHT35;22147;52.388;13.390;2023-04-03T17:20:09;4.46;60.44
47757;SHT35;22147;52.388;13.390;2023-04-03T17:22:40;4.48;61.38
47757;SHT35;22147;52.388;13.390;2023-04-03T17:25:10;4.52;60.98
47757;SHT35;22147;52.388;13.390;2023-04-03T17:27:41;4.46;60.68
47757;SHT35;22147;52.388;13.390;2023-04-03T17:30:11;4.44;61.09
47757;SHT35;22147;52.388;13.390;2023-04-03T17:32:42;4.38;60.91
47757;SHT35;22147;52.388;13.390;2023-04-03T17:35:12;4.49;60.18
47757;SHT35;22147;52.388;13.390;2023-04-03T17:37:42;4.32;61.44
47757;SHT35;22147;52.388;13.390;2023-04-03T17:40:13;4.21;61.90
47757;SHT35;22147;52.388;13.390;2023-04-03T17:42:44;4.21;61.36